sensor_id;sensor_type;location;lat;lon;timestamp;pressure;altitude;pressure_sealevel;temperature;humidity
42111;BME280;27766;52.174;5.456;2023-01-15T00:02:21;99649.03;;;6.23;100.00
42111;BME280;27766;52.174;5.456;2023-01-15T00:04:50;99638.91;;;6.34;100.00
42111;BME280;27766;52.174;5.456;2023-01-15T00:07:18;99650.88;;;6.33;100.00
42111;BME280;27766;52.174;5.456;2023-01-15T00:09:45;99649.09;;;6.28;100.00
42111;BME280;27766;52.174;5.456;2023-01-15T00:12:12;99643.97;;;6.29;100.00
42111;BME280;27766;52.174;5.456;2023-01-15T00:14:39;99655.91;;;6.26;100.00
42111;BME280;27766;52.174;5.456;2023-01-15T00:17:06;99657.59;;;6.24;100.00
42111;BME280;27766;52.174;5.456;2023-01-15T00:19:33;99657.59;;;6.25;100.00
42111;BME280;27766;52.174;5.456;2023-01-15T00:22:00;99646.47;;;6.23;100.00
42111;BME280;27766;52.174;5.456;2023-01-15T00:24:28;99644.81;;;6.27;100.00
42111;BME280;27766;52.174;5.456;2023-01-15T00:27:13;99649.09;;;6.28;100.00
42111;BME280;27766;52.174;5.456;2023-01-15T00:29:59;99651.69;;;6.29;100.00
42111;BME280;27766;52.174;5.456;2023-01-15T00:32:26;99652.53;;;6.30;100.00
42111;BME280;27766;52.174;5.456;2023-01-15T00:34:57;99647.38;;;6.27;100.00
42111;BME280;27766;52.174;5.456;2023-01-15T00:37:25;99652.59;;;6.31;100.00
42111;BME280;27766;52.174;5.456;2023-01-15T00:39:52;99645.72;;;6.32;100.00
42111;BME280;27766;52.174;5.456;2023-01-15T00:42:19;99650.88;;;6.33;100.00
42111;BME280;27766;52.174;5.456;2023-01-15T00:44:46;99646.53;;;6.28;100.00
42111;BME280;27766;52.174;5.456;2023-01-15T00:47:14;99650.78;;;6.26;100.00
42111;BME280;27766;52.174;5.456;2023-01-15T00:49:41;99649.88;;;6.25;100.00
42111;BME280;27766;52.174;5.456;2023-01-15T00:52:09;99644.72;;;6.22;100.00
42111;BME280;27766;52.174;5.456;2023-01-15T00:54:37;99636.09;;;6.18;100.00
42111;BME280;27766;52.174;5.456;2023-01-15T00:57:04;99642.91;;;6.18;100.00
42111;BME280;27766;52.174;5.456;2023-01-15T00:59:31;99651.38;;;6.11;100.00
42111;BME280;27766;52.174;5.456;2023-01-15T01:01:58;99644.53;;;6.11;100.00
42111;BME280;27766;52.174;5.456;2023-01-15T01:04:25;99656.56;;;6.14;100.00
42111;BME280;27766;52.174;5.456;2023-01-15T01:06:52;99644.56;;;6.13;100.00
42111;BME280;27766;52.174;5.456;2023-01-15T01:09:20;99647.97;;;6.12;100.00
42111;BME280;27766;52.174;5.456;2023-01-15T01:11:48;99658.22;;;6.09;100.00
42111;BME280;27766;52.174;5.456;2023-01-15T01:14:16;99636.59;;;5.99;100.00
42111;BME280;27766;52.174;5.456;2023-01-15T01:16:43;99643.34;;;5.95;100.00
42111;BME280;27766;52.174;5.456;2023-01-15T01:19:12;99646.75;;;5.94;100.00
42111;BME280;27766;52.174;5.456;2023-01-15T01:21:41;99662.03;;;5.85;100.00
42111;BME280;27766;52.174;5.456;2023-01-15T01:24:16;99660.41;;;5.90;100.00
42111;BME280;27766;52.174;5.456;2023-01-15T01:26:46;99657.09;;;5.97;100.00
42111;BME280;27766;52.174;5.456;2023-01-15T01:29:19;99652.72;;;5.92;100.00
42111;BME280;27766;52.174;5.456;2023-01-15T01:31:47;99653.53;;;5.89;100.00
42111;BME280;27766;52.174;5.456;2023-01-15T01:34:14;99644.94;;;5.87;100.00
42111;BME280;27766;52.174;5.456;2023-01-15T01:36:43;99664.69;;;5.90;100.00
42111;BME280;27766;52.174;5.456;2023-01-15T01:39:14;99654.38;;;5.88;100.00
42111;BME280;27766;52.174;5.456;2023-01-15T01:41:42;99674.09;;;5.91;100.00
42111;BME280;27766;52.174;5.456;2023-01-15T01:47:04;99666.19;;;5.80;100.00
42111;BME280;27766;52.174;5.456;2023-01-15T01:49:33;99674.88;;;5.86;100.00
42111;BME280;27766;52.174;5.456;2023-01-15T01:52:04;99680.94;;;5.89;100.00
42111;BME280;27766;52.174;5.456;2023-01-15T01:54:34;99688.72;;;5.93;100.00
42111;BME280;27766;52.174;5.456;2023-01-15T01:57:03;99679.13;;;5.84;100.00
42111;BME280;27766;52.174;5.456;2023-01-15T01:59:31;99678.28;;;5.85;100.00
42111;BME280;27766;52.174;5.456;2023-01-15T02:01:59;99687.72;;;5.86;100.00
42111;BME280;27766;52.174;5.456;2023-01-15T02:04:27;99676.53;;;5.81;100.00
42111;BME280;27766;52.174;5.456;2023-01-15T02:06:56;99679.97;;;5.83;100.00
42111;BME280;27766;52.174;5.456;2023-01-15T02:09:24;99666.19;;;5.80;100.00
42111;BME280;27766;52.174;5.456;2023-01-15T02:11:52;99671.41;;;5.83;100.00
42111;BME280;27766;52.174;5.456;2023-01-15T02:14:37;99671.22;;;5.74;100.00
42111;BME280;27766;52.174;5.456;2023-01-15T02:17:14;99673.78;;;5.74;100.00
42111;BME280;27766;52.174;5.456;2023-01-15T02:20:15;99661.84;;;5.74;100.00
42111;BME280;27766;52.174;5.456;2023-01-15T02:28:43;99662.69;;;5.75;100.00
42111;BME280;27766;52.174;5.456;2023-01-15T02:31:29;99662.63;;;5.71;100.00
42111;BME280;27766;52.174;5.456;2023-01-15T02:34:23;99673.03;;;5.78;100.00
42111;BME280;27766;52.174;5.456;2023-01-15T02:36:58;99661.69;;;5.68;100.00
42111;BME280;27766;52.174;5.456;2023-01-15T02:39:26;99669.56;;;5.76;100.00
42111;BME280;27766;52.174;5.456;2023-01-15T02:41:58;99666.03;;;5.70;100.00
42111;BME280;27766;52.174;5.456;2023-01-15T02:44:28;99672.97;;;5.75;100.00
42111;BME280;27766;52.174;5.456;2023-01-15T02:46:57;99658.38;;;5.72;100.00
42111;BME280;27766;52.174;5.456;2023-01-15T02:49:25;99677.16;;;5.71;100.00
42111;BME280;27766;52.174;5.456;2023-01-15T02:51:57;99672.13;;;5.76;100.00
42111;BME280;27766;52.174;5.456;2023-01-15T02:54:29;99658.41;;;5.75;100.00
42111;BME280;27766;52.174;5.456;2023-01-15T02:56:59;99660.13;;;5.76;100.00
42111;BME280;27766;52.174;5.456;2023-01-15T02:59:34;99658.38;;;5.74;100.00
42111;BME280;27766;52.174;5.456;2023-01-15T03:02:08;99664.34;;;5.73;100.00
42111;BME280;27766;52.174;5.456;2023-01-15T03:04:39;99658.38;;;5.74;100.00
42111;BME280;27766;52.174;5.456;2023-01-15T03:09:40;99649.56;;;5.61;100.00
42111;BME280;27766;52.174;5.456;2023-01-15T03:12:25;99657.34;;;5.64;100.00
42111;BME280;27766;52.174;5.456;2023-01-15T03:15:14;99651.38;;;5.65;100.00
42111;BME280;27766;52.174;5.456;2023-01-15T03:18:05;99644.50;;;5.64;100.00
42111;BME280;27766;52.174;5.456;2023-01-15T03:20:37;99648.75;;;5.62;100.00
42111;BME280;27766;52.174;5.456;2023-01-15T03:23:10;99654.81;;;5.65;100.00
42111;BME280;27766;52.174;5.456;2023-01-15T03:25:45;99661.66;;;5.66;100.00
42111;BME280;27766;52.174;5.456;2023-01-15T03:28:18;99653.97;;;5.66;100.00
42111;BME280;27766;52.174;5.456;2023-01-15T03:30:47;99641.00;;;5.59;100.00
42111;BME280;27766;52.174;5.456;2023-01-15T03:33:14;99654.81;;;5.65;100.00
42111;BME280;27766;52.174;5.456;2023-01-15T03:38:15;99647.84;;;5.60;100.00
42111;BME280;27766;52.174;5.456;2023-01-15T03:46:34;99657.81;;;5.44;100.00
42111;BME280;27766;52.174;5.456;2023-01-15T03:49:10;99644.84;;;5.38;100.00
42111;BME280;27766;52.174;5.456;2023-01-15T03:54:32;99638.72;;;5.30;100.00
42111;BME280;27766;52.174;5.456;2023-01-15T03:57:06;99642.13;;;5.29;100.00
42111;BME280;27766;52.174;5.456;2023-01-15T03:59:38;99642.91;;;5.26;100.00
42111;BME280;27766;52.174;5.456;2023-01-15T04:02:08;99634.25;;;5.21;100.00
42111;BME280;27766;52.174;5.456;2023-01-15T04:04:37;99632.59;;;5.23;100.00
42111;BME280;27766;52.174;5.456;2023-01-15T04:07:05;99641.97;;;5.21;100.00
42111;BME280;27766;52.174;5.456;2023-01-15T04:09:37;99646.31;;;5.25;100.00
42111;BME280;27766;52.174;5.456;2023-01-15T04:12:06;99638.59;;;5.23;100.00
42111;BME280;27766;52.174;5.456;2023-01-15T04:14:34;99635.16;;;5.23;100.00
42111;BME280;27766;52.174;5.456;2023-01-15T04:17:02;99648.88;;;5.25;100.00
42111;BME280;27766;52.174;5.456;2023-01-15T04:19:29;99643.75;;;5.25;100.00
42111;BME280;27766;52.174;5.456;2023-01-15T04:21:56;99653.94;;;5.20;100.00
42111;BME280;27766;52.174;5.456;2023-01-15T04:24:23;99649.66;;;5.21;100.00
42111;BME280;27766;52.174;5.456;2023-01-15T04:26:51;99645.34;;;5.20;100.00
42111;BME280;27766;52.174;5.456;2023-01-15T04:29:18;99636.84;;;5.21;100.00
42111;BME280;27766;52.174;5.456;2023-01-15T04:31:45;99634.25;;;5.19;100.00
42111;BME280;27766;52.174;5.456;2023-01-15T04:34:12;99633.41;;;5.20;100.00
42111;BME280;27766;52.174;5.456;2023-01-15T04:36:39;99622.38;;;5.26;100.00
42111;BME280;27766;52.174;5.456;2023-01-15T04:39:06;99622.25;;;5.20;100.00
42111;BME280;27766;52.174;5.456;2023-01-15T04:41:33;99626.59;;;5.22;100.00
42111;BME280;27766;52.174;5.456;2023-01-15T04:44:19;99642.09;;;5.27;100.00
42111;BME280;27766;52.174;5.456;2023-01-15T04:46:46;99624.13;;;5.27;100.00
42111;BME280;27766;52.174;5.456;2023-01-15T04:49:16;99628.31;;;5.22;100.00
42111;BME280;27766;52.174;5.456;2023-01-15T04:51:44;99629.00;;;5.15;100.00
42111;BME280;27766;52.174;5.456;2023-01-15T04:54:13;99634.06;;;5.12;100.00
42111;BME280;27766;52.174;5.456;2023-01-15T04:56:44;99640.09;;;5.12;100.00
42111;BME280;27766;52.174;5.456;2023-01-15T04:59:12;99639.16;;;5.09;100.00
42111;BME280;27766;52.174;5.456;2023-01-15T05:01:39;99644.41;;;5.15;100.00
42111;BME280;27766;52.174;5.456;2023-01-15T05:04:20;99630.78;;;5.19;100.00
42111;BME280;27766;52.174;5.456;2023-01-15T05:06:48;99629.06;;;5.18;100.00
42111;BME280;27766;52.174;5.456;2023-01-15T05:09:15;99628.22;;;5.19;100.00
42111;BME280;27766;52.174;5.456;2023-01-15T05:11:42;99623.06;;;5.17;100.00
42111;BME280;27766;52.174;5.456;2023-01-15T05:14:10;99633.53;;;5.27;100.00
42111;BME280;27766;52.174;5.456;2023-01-15T05:16:37;99634.47;;;5.32;100.00
42111;BME280;27766;52.174;5.456;2023-01-15T05:19:04;99628.41;;;5.28;100.00
42111;BME280;27766;52.174;5.456;2023-01-15T05:21:35;99627.59;;;5.29;100.00
42111;BME280;27766;52.174;5.456;2023-01-15T05:24:05;99626.75;;;5.29;100.00
42111;BME280;27766;52.174;5.456;2023-01-15T05:26:37;99613.00;;;5.27;100.00
42111;BME280;27766;52.174;5.456;2023-01-15T05:29:04;99607.78;;;5.22;100.00
42111;BME280;27766;52.174;5.456;2023-01-15T05:31:32;99616.31;;;5.22;100.00
42111;BME280;27766;52.174;5.456;2023-01-15T05:34:04;99619.66;;;5.17;100.00
42111;BME280;27766;52.174;5.456;2023-01-15T05:36:36;99616.00;;;5.07;100.00
42111;BME280;27766;52.174;5.456;2023-01-15T05:39:03;99626.38;;;5.12;100.00
42111;BME280;27766;52.174;5.456;2023-01-15T05:41:31;99620.28;;;5.06;100.00
42111;BME280;27766;52.174;5.456;2023-01-15T05:44:22;99611.78;;;5.07;100.00
42111;BME280;27766;52.174;5.456;2023-01-15T05:46:52;99611.69;;;5.04;100.00
42111;BME280;27766;52.174;5.456;2023-01-15T05:49:22;99606.44;;;4.98;100.00
42111;BME280;27766;52.174;5.456;2023-01-15T05:51:50;99615.09;;;5.03;100.00
42111;BME280;27766;52.174;5.456;2023-01-15T05:54:20;99617.66;;;5.03;100.00
42111;BME280;27766;52.174;5.456;2023-01-15T05:56:48;99620.22;;;5.03;100.00
42111;BME280;27766;52.174;5.456;2023-01-15T05:59:17;99614.97;;;4.97;100.00
42111;BME280;27766;52.174;5.456;2023-01-15T06:01:45;99623.56;;;4.99;100.00
42111;BME280;27766;52.174;5.456;2023-01-15T06:04:12;99621.75;;;4.95;100.00
42111;BME280;27766;52.174;5.456;2023-01-15T06:06:48;99623.34;;;4.90;100.00
42111;BME280;27766;52.174;5.456;2023-01-15T06:09:15;99621.66;;;4.90;100.00
42111;BME280;27766;52.174;5.456;2023-01-15T06:11:42;99614.81;;;4.89;100.00
42111;BME280;27766;52.174;5.456;2023-01-15T06:14:10;99621.50;;;4.83;100.00
42111;BME280;27766;52.174;5.456;2023-01-15T06:16:39;99610.34;;;4.81;100.00
42111;BME280;27766;52.174;5.456;2023-01-15T06:19:08;99616.25;;;4.77;100.00
42111;BME280;27766;52.174;5.456;2023-01-15T06:21:37;99631.53;;;4.72;100.00
42111;BME280;27766;52.174;5.456;2023-01-15T06:24:04;99632.19;;;4.63;100.00
42111;BME280;27766;52.174;5.456;2023-01-15T06:26:32;99633.88;;;4.64;100.00
42111;BME280;27766;52.174;5.456;2023-01-15T06:28:59;99631.28;;;4.61;100.00
42111;BME280;27766;52.174;5.456;2023-01-15T06:31:26;99633.66;;;4.53;100.00
42111;BME280;27766;52.174;5.456;2023-01-15T06:33:54;99645.78;;;4.60;100.00
42111;BME280;27766;52.174;5.456;2023-01-15T06:36:25;99636.28;;;4.56;100.00
42111;BME280;27766;52.174;5.456;2023-01-15T06:38:53;99636.97;;;4.49;100.00
42111;BME280;27766;52.174;5.456;2023-01-15T06:41:23;99642.09;;;4.48;100.00
42111;BME280;27766;52.174;5.456;2023-01-15T06:44:14;99643.72;;;4.46;100.00
42111;BME280;27766;52.174;5.456;2023-01-15T06:47:17;99627.41;;;4.42;100.00
42111;BME280;27766;52.174;5.456;2023-01-15T06:49:56;99637.56;;;4.37;100.00
42111;BME280;27766;52.174;5.456;2023-01-15T06:52:26;99635.72;;;4.33;100.00
42111;BME280;27766;52.174;5.456;2023-01-15T06:54:54;99648.63;;;4.36;100.00
42111;BME280;27766;52.174;5.456;2023-01-15T06:57:22;99641.66;;;4.31;100.00
42111;BME280;27766;52.174;5.456;2023-01-15T06:59:49;99636.75;;;4.40;100.00
42111;BME280;27766;52.174;5.456;2023-01-15T07:02:17;99640.25;;;4.43;100.00
42111;BME280;27766;52.174;5.456;2023-01-15T07:04:45;99635.94;;;4.41;100.00
42111;BME280;27766;52.174;5.456;2023-01-15T07:07:20;99635.81;;;4.36;100.00
42111;BME280;27766;52.174;5.456;2023-01-15T07:09:49;99628.00;;;4.30;100.00
42111;BME280;27766;52.174;5.456;2023-01-15T07:12:16;99637.41;;;4.31;100.00
42111;BME280;27766;52.174;5.456;2023-01-15T07:14:43;99631.50;;;4.34;100.00
42111;BME280;27766;52.174;5.456;2023-01-15T07:17:11;99628.59;;;4.20;100.00
42111;BME280;27766;52.174;5.456;2023-01-15T07:19:39;99639.53;;;4.14;100.00
42111;BME280;27766;52.174;5.456;2023-01-15T07:22:08;99634.13;;;4.02;100.00
42111;BME280;27766;52.174;5.456;2023-01-15T07:24:36;99621.09;;;3.92;100.00
42111;BME280;27766;52.174;5.456;2023-01-15T07:27:03;99631.16;;;3.86;100.00
42111;BME280;27766;52.174;5.456;2023-01-15T07:29:30;99640.38;;;3.79;100.00
42111;BME280;27766;52.174;5.456;2023-01-15T07:31:57;99634.28;;;3.74;100.00
42111;BME280;27766;52.174;5.456;2023-01-15T07:34:25;99631.59;;;3.70;100.00
42111;BME280;27766;52.174;5.456;2023-01-15T07:36:52;99641.13;;;3.75;100.00
42111;BME280;27766;52.174;5.456;2023-01-15T07:39:19;99651.47;;;3.78;100.00
42111;BME280;27766;52.174;5.456;2023-01-15T07:41:46;99642.94;;;3.79;100.00
42111;BME280;27766;52.174;5.456;2023-01-15T07:44:32;99631.81;;;3.77;100.00
42111;BME280;27766;52.174;5.456;2023-01-15T07:47:23;99639.50;;;3.77;100.00
42111;BME280;27766;52.174;5.456;2023-01-15T07:50:21;99643.06;;;3.84;100.00
42111;BME280;27766;52.174;5.456;2023-01-15T07:52:49;99634.53;;;3.84;100.00
42111;BME280;27766;52.174;5.456;2023-01-15T07:55:20;99624.38;;;3.87;100.00
42111;BME280;27766;52.174;5.456;2023-01-15T07:57:47;99618.47;;;3.89;100.00
42111;BME280;27766;52.174;5.456;2023-01-15T08:00:19;99609.09;;;3.91;100.00
42111;BME280;27766;52.174;5.456;2023-01-15T08:02:46;99611.84;;;3.98;100.00
42111;BME280;27766;52.174;5.456;2023-01-15T08:05:17;99624.78;;;4.04;100.00
42111;BME280;27766;52.174;5.456;2023-01-15T08:07:44;99625.66;;;4.04;100.00
42111;BME280;27766;52.174;5.456;2023-01-15T08:10:14;99619.69;;;4.05;100.00
42111;BME280;27766;52.174;5.456;2023-01-15T08:12:41;99618.06;;;4.07;100.00
42111;BME280;27766;52.174;5.456;2023-01-15T08:15:31;99628.69;;;4.23;100.00
42111;BME280;27766;52.174;5.456;2023-01-15T08:17:59;99623.78;;;4.32;100.00
42111;BME280;27766;52.174;5.456;2023-01-15T08:20:26;99629.84;;;4.36;100.00
42111;BME280;27766;52.174;5.456;2023-01-15T08:22:53;99627.22;;;4.34;100.00
42111;BME280;27766;52.174;5.456;2023-01-15T08:25:24;99634.16;;;4.38;100.00
42111;BME280;27766;52.174;5.456;2023-01-15T08:27:52;99619.47;;;4.31;100.00
42111;BME280;27766;52.174;5.456;2023-01-15T08:30:23;99630.63;;;4.33;100.00
42111;BME280;27766;52.174;5.456;2023-01-15T08:32:50;99631.34;;;4.27;100.00
42111;BME280;27766;52.174;5.456;2023-01-15T08:35:18;99639.78;;;4.23;100.00
42111;BME280;27766;52.174;5.456;2023-01-15T08:37:45;99625.97;;;4.17;100.00
42111;BME280;27766;52.174;5.456;2023-01-15T08:40:12;99628.72;;;4.26;100.00
42111;BME280;27766;52.174;5.456;2023-01-15T08:42:39;99616.94;;;4.31;100.00
42111;BME280;27766;52.174;5.456;2023-01-15T08:45:08;99621.34;;;4.38;100.00
42111;BME280;27766;52.174;5.456;2023-01-15T08:47:35;99626.53;;;4.41;100.00
42111;BME280;27766;52.174;5.456;2023-01-15T08:50:04;99621.63;;;4.51;100.00
42111;BME280;27766;52.174;5.456;2023-01-15T08:52:34;99627.00;;;4.62;100.00
42111;BME280;27766;52.174;5.456;2023-01-15T08:55:02;99616.84;;;4.66;100.00
42111;BME280;27766;52.174;5.456;2023-01-15T08:57:29;99618.84;;;4.80;100.00
42111;BME280;27766;52.174;5.456;2023-01-15T08:59:56;99618.03;;;4.81;100.00
42111;BME280;27766;52.174;5.456;2023-01-15T09:02:23;99623.22;;;4.84;100.00
42111;BME280;27766;52.174;5.456;2023-01-15T09:04:50;99614.84;;;4.91;100.00
42111;BME280;27766;52.174;5.456;2023-01-15T09:07:19;99620.97;;;4.98;100.00
42111;BME280;27766;52.174;5.456;2023-01-15T09:09:46;99610.72;;;4.98;100.00
42111;BME280;27766;52.174;5.456;2023-01-15T09:12:13;99624.50;;;5.03;100.00
42111;BME280;27766;52.174;5.456;2023-01-15T09:14:41;99632.28;;;5.07;100.00
42111;BME280;27766;52.174;5.456;2023-01-15T09:17:27;99621.03;;;5.02;100.00
42111;BME280;27766;52.174;5.456;2023-01-15T09:19:54;99624.50;;;5.04;100.00
42111;BME280;27766;52.174;5.456;2023-01-15T09:22:22;99631.50;;;5.12;100.00
42111;BME280;27766;52.174;5.456;2023-01-15T09:24:49;99629.00;;;5.15;100.00
42111;BME280;27766;52.174;5.456;2023-01-15T09:27:16;99624.72;;;5.14;100.00
42111;BME280;27766;52.174;5.456;2023-01-15T09:29:43;99620.59;;;5.20;100.00
42111;BME280;27766;52.174;5.456;2023-01-15T09:32:11;99625.03;;;5.31;100.00
42111;BME280;27766;52.174;5.456;2023-01-15T09:34:38;99630.28;;;5.37;100.00
42111;BME280;27766;52.174;5.456;2023-01-15T09:37:05;99628.00;;;5.51;100.00
42111;BME280;27766;52.174;5.456;2023-01-15T09:39:32;99641.84;;;5.58;100.00
42111;BME280;27766;52.174;5.456;2023-01-15T09:55:24;99614.44;;;5.58;100.00
42111;BME280;27766;52.174;5.456;2023-01-15T09:57:59;99634.34;;;5.68;100.00
42111;BME280;27766;52.174;5.456;2023-01-15T10:00:37;99632.72;;;5.74;100.00
42111;BME280;27766;52.174;5.456;2023-01-15T10:06:13;99635.44;;;5.81;100.00
42111;BME280;27766;52.174;5.456;2023-01-15T10:08:45;99614.81;;;5.77;100.00
42111;BME280;27766;52.174;5.456;2023-01-15T10:16:22;99623.63;;;5.91;100.00
42111;BME280;27766;52.174;5.456;2023-01-15T10:18:51;99612.50;;;5.92;100.00
42111;BME280;27766;52.174;5.456;2023-01-15T10:21:35;99631.53;;;6.02;100.00
42111;BME280;27766;52.174;5.456;2023-01-15T10:24:18;99620.22;;;5.94;100.00
42111;BME280;27766;52.174;5.456;2023-01-15T10:26:57;99625.34;;;5.92;100.00
42111;BME280;27766;52.174;5.456;2023-01-15T10:29:45;99660.25;;;5.82;100.00
42111;BME280;27766;52.174;5.456;2023-01-15T10:32:22;99635.38;;;5.80;100.00
42111;BME280;27766;52.174;5.456;2023-01-15T10:37:57;99664.25;;;5.66;100.00
42111;BME280;27766;52.174;5.456;2023-01-15T10:40:37;99632.59;;;5.67;100.00
42111;BME280;27766;52.174;5.456;2023-01-15T10:43:21;99634.34;;;5.70;100.00
42111;BME280;27766;52.174;5.456;2023-01-15T10:45:55;99678.16;;;5.78;100.00
42111;BME280;27766;52.174;5.456;2023-01-15T10:48:38;99662.75;;;5.78;100.00
42111;BME280;27766;52.174;5.456;2023-01-15T10:51:17;99641.28;;;5.74;100.00
42111;BME280;27766;52.174;5.456;2023-01-15T10:53:47;99654.16;;;5.76;100.00
42111;BME280;27766;52.174;5.456;2023-01-15T10:56:27;99653.44;;;5.84;100.00
42111;BME280;27766;52.174;5.456;2023-01-15T11:01:31;99642.44;;;5.90;100.00
42111;BME280;27766;52.174;5.456;2023-01-15T11:03:59;99644.97;;;5.89;100.00
42111;BME280;27766;52.174;5.456;2023-01-15T11:06:29;99648.47;;;5.92;100.00
42111;BME280;27766;52.174;5.456;2023-01-15T11:08:58;99645.81;;;5.89;100.00
42111;BME280;27766;52.174;5.456;2023-01-15T11:11:40;99658.84;;;5.98;100.00
42111;BME280;27766;52.174;5.456;2023-01-15T11:14:35;99634.00;;;5.97;100.00
42111;BME280;27766;52.174;5.456;2023-01-15T11:17:23;99640.97;;;6.03;100.00
42111;BME280;27766;52.174;5.456;2023-01-15T11:20:16;99641.09;;;6.11;100.00
42111;BME280;27766;52.174;5.456;2023-01-15T11:22:49;99640.34;;;6.16;100.00
42111;BME280;27766;52.174;5.456;2023-01-15T11:25:30;99645.50;;;6.18;100.00
42111;BME280;27766;52.174;5.456;2023-01-15T11:28:01;99640.34;;;6.16;100.00
42111;BME280;27766;52.174;5.456;2023-01-15T11:30:32;99647.03;;;6.08;100.00
42111;BME280;27766;52.174;5.456;2023-01-15T11:33:01;99674.19;;;5.95;100.00
42111;BME280;27766;52.174;5.456;2023-01-15T11:35:32;99663.72;;;5.84;100.00
42111;BME280;27766;52.174;5.456;2023-01-15T11:38:20;99677.34;;;5.80;100.00
42111;BME280;27766;52.174;5.456;2023-01-15T11:40:54;99650.78;;;5.80;100.00
42111;BME280;27766;52.174;5.456;2023-01-15T11:43:24;99659.31;;;5.77;100.00
42111;BME280;27766;52.174;5.456;2023-01-15T11:46:39;99665.44;;;5.85;100.00
42111;BME280;27766;52.174;5.456;2023-01-15T11:49:25;99656.16;;;5.92;100.00
42111;BME280;27766;52.174;5.456;2023-01-15T11:52:22;99663.81;;;5.91;100.00
42111;BME280;27766;52.174;5.456;2023-01-15T11:54:52;99651.84;;;5.90;100.00
42111;BME280;27766;52.174;5.456;2023-01-15T11:57:26;99646.03;;;6.00;100.00
42111;BME280;27766;52.174;5.456;2023-01-15T11:59:54;99647.56;;;5.92;100.00
42111;BME280;27766;52.174;5.456;2023-01-15T12:02:34;99647.78;;;6.01;100.00
42111;BME280;27766;52.174;5.456;2023-01-15T12:05:31;99634.72;;;5.92;100.00
42111;BME280;27766;52.174;5.456;2023-01-15T12:08:15;99638.19;;;5.92;100.00
42111;BME280;27766;52.174;5.456;2023-01-15T12:10:59;99631.34;;;5.93;100.00
42111;BME280;27766;52.174;5.456;2023-01-15T12:19:28;99641.50;;;5.85;100.00
42111;BME280;27766;52.174;5.456;2023-01-15T12:22:20;99655.09;;;5.81;100.00
42111;BME280;27766;52.174;5.456;2023-01-15T12:30:27;99654.41;;;5.45;100.00
42111;BME280;27766;52.174;5.456;2023-01-15T12:33:16;99641.84;;;5.15;100.00
42111;BME280;27766;52.174;5.456;2023-01-15T12:35:51;99642.84;;;4.82;100.00
42111;BME280;27766;52.174;5.456;2023-01-15T12:41:34;99642.78;;;4.40;100.00
42111;BME280;27766;52.174;5.456;2023-01-15T12:44:51;99648.59;;;4.35;100.00
42111;BME280;27766;52.174;5.456;2023-01-15T12:47:57;99647.69;;;4.33;100.00
42111;BME280;27766;52.174;5.456;2023-01-15T12:50:38;99639.44;;;4.44;100.00
42111;BME280;27766;52.174;5.456;2023-01-15T12:53:40;99652.50;;;4.55;100.00
42111;BME280;27766;52.174;5.456;2023-01-15T12:56:21;99638.75;;;4.52;100.00
42111;BME280;27766;52.174;5.456;2023-01-15T12:58:59;99635.28;;;4.50;100.00
42111;BME280;27766;52.174;5.456;2023-01-15T13:01:55;99629.47;;;4.57;100.00
42111;BME280;27766;52.174;5.456;2023-01-15T13:04:31;99639.78;;;4.58;100.00
42111;BME280;27766;52.174;5.456;2023-01-15T13:09:47;99643.25;;;4.62;100.00
42111;BME280;27766;52.174;5.456;2023-01-15T13:12:17;99636.41;;;4.61;100.00
42111;BME280;27766;52.174;5.456;2023-01-15T13:14:45;99642.69;;;4.74;100.00
42111;BME280;27766;52.174;5.456;2023-01-15T13:17:31;99650.53;;;4.82;100.00
42111;BME280;27766;52.174;5.456;2023-01-15T13:29:19;99646.91;;;5.12;100.00
42111;BME280;27766;52.174;5.456;2023-01-15T13:37:20;99671.03;;;5.21;100.00
42111;BME280;27766;52.174;5.456;2023-01-15T13:39:48;99644.41;;;5.15;100.00
42111;BME280;27766;52.174;5.456;2023-01-15T13:42:20;99661.69;;;5.25;100.00
42111;BME280;27766;52.174;5.456;2023-01-15T13:45:06;99653.97;;;5.22;100.00
42111;BME280;27766;52.174;5.456;2023-01-15T13:47:36;99663.41;;;5.25;100.00
42111;BME280;27766;52.174;5.456;2023-01-15T13:50:12;99668.53;;;5.23;100.00
42111;BME280;27766;52.174;5.456;2023-01-15T13:52:40;99660.78;;;5.21;100.00
42111;BME280;27766;52.174;5.456;2023-01-15T13:57:37;99680.63;;;5.29;100.00
42111;BME280;27766;52.174;5.456;2023-01-15T14:00:24;99672.03;;;5.27;100.00
42111;BME280;27766;52.174;5.456;2023-01-15T14:02:54;99664.38;;;5.30;100.00
42111;BME280;27766;52.174;5.456;2023-01-15T14:07:49;99664.41;;;5.31;100.00
42111;BME280;27766;52.174;5.456;2023-01-15T14:13:04;99672.13;;;5.31;100.00
42111;BME280;27766;52.174;5.456;2023-01-15T14:18:54;99661.69;;;5.23;100.00
42111;BME280;27766;52.174;5.456;2023-01-15T14:21:33;99683.09;;;5.26;100.00
42111;BME280;27766;52.174;5.456;2023-01-15T14:27:01;99687.19;;;5.16;100.00
42111;BME280;27766;52.174;5.456;2023-01-15T14:32:39;99699.25;;;5.21;100.00
42111;BME280;27766;52.174;5.456;2023-01-15T14:35:13;99691.63;;;5.23;100.00
42111;BME280;27766;52.174;5.456;2023-01-15T14:38:03;99672.75;;;5.21;100.00
42111;BME280;27766;52.174;5.456;2023-01-15T14:40:33;99688.81;;;5.12;100.00
42111;BME280;27766;52.174;5.456;2023-01-15T14:43:06;99703.41;;;5.15;100.00
42111;BME280;27766;52.174;5.456;2023-01-15T14:50:54;99702.69;;;5.22;100.00
42111;BME280;27766;52.174;5.456;2023-01-15T14:53:40;99704.47;;;5.25;100.00
42111;BME280;27766;52.174;5.456;2023-01-15T14:56:17;99723.34;;;5.28;100.00
42111;BME280;27766;52.174;5.456;2023-01-15T14:59:08;99724.25;;;5.30;100.00
42111;BME280;27766;52.174;5.456;2023-01-15T15:01:50;99717.41;;;5.29;100.00
42111;BME280;27766;52.174;5.456;2023-01-15T15:07:02;99728.41;;;5.25;100.00
42111;BME280;27766;52.174;5.456;2023-01-15T15:09:49;99735.22;;;5.23;100.00
42111;BME280;27766;52.174;5.456;2023-01-15T15:23:21;99745.44;;;5.21;100.00
42111;BME280;27766;52.174;5.456;2023-01-15T15:26:02;99736.09;;;5.23;100.00
42111;BME280;27766;52.174;5.456;2023-01-15T15:28:29;99734.34;;;5.22;100.00